sensor_id;sensor_type;location;lat;lon;timestamp;P1;durP1;ratioP1;P2;durP2;ratioP2
74849;SDS011;63397;47.480;19.238;2023-10-13T06:11:53;22.13;;;11.38;;
74849;SDS011;63397;47.480;19.238;2023-10-13T06:15:14;21.40;;;10.45;;
74849;SDS011;63397;47.480;19.238;2023-10-13T06:18:35;25.17;;;11.70;;
74849;SDS011;63397;47.480;19.238;2023-10-13T06:21:56;26.83;;;11.40;;
74849;SDS011;63397;47.480;19.238;2023-10-13T06:25:16;22.10;;;11.87;;
74849;SDS011;63397;47.480;19.238;2023-10-13T06:28:38;18.48;;;10.55;;
74849;SDS011;63397;47.480;19.238;2023-10-13T06:31:43;19.90;;;10.60;;
74849;SDS011;63397;47.480;19.238;2023-10-13T06:34:48;22.83;;;12.30;;
74849;SDS011;63397;47.480;19.238;2023-10-13T06:37:52;23.67;;;11.18;;
74849;SDS011;63397;47.480;19.238;2023-10-13T06:40:54;26.37;;;11.67;;
74849;SDS011;63397;47.480;19.238;2023-10-13T06:43:58;23.55;;;10.80;;
74849;SDS011;63397;47.480;19.238;2023-10-13T06:47:09;18.60;;;11.25;;
74849;SDS011;63397;47.480;19.238;2023-10-13T06:50:12;20.95;;;11.23;;
74849;SDS011;63397;47.480;19.238;2023-10-13T06:53:19;23.25;;;10.95;;
74849;SDS011;63397;47.480;19.238;2023-10-13T06:56:23;24.80;;;11.27;;
74849;SDS011;63397;47.480;19.238;2023-10-13T06:59:30;23.77;;;11.02;;
74849;SDS011;63397;47.480;19.238;2023-10-13T07:02:35;19.05;;;10.80;;
74849;SDS011;63397;47.480;19.238;2023-10-13T07:05:40;20.20;;;11.02;;
74849;SDS011;63397;47.480;19.238;2023-10-13T07:08:47;21.52;;;11.43;;
74849;SDS011;63397;47.480;19.238;2023-10-13T07:11:58;25.80;;;12.00;;
74849;SDS011;63397;47.480;19.238;2023-10-13T07:15:02;24.10;;;11.82;;
74849;SDS011;63397;47.480;19.238;2023-10-13T07:18:13;20.88;;;11.13;;
74849;SDS011;63397;47.480;19.238;2023-10-13T07:21:17;22.75;;;12.05;;
74849;SDS011;63397;47.480;19.238;2023-10-13T07:24:26;22.65;;;12.27;;
74849;SDS011;63397;47.480;19.238;2023-10-13T07:27:42;21.90;;;11.77;;
74849;SDS011;63397;47.480;19.238;2023-10-13T07:30:44;24.23;;;13.00;;
74849;SDS011;63397;47.480;19.238;2023-10-13T07:33:56;23.17;;;11.15;;
74849;SDS011;63397;47.480;19.238;2023-10-13T07:37:07;26.35;;;11.88;;
74849;SDS011;63397;47.480;19.238;2023-10-13T07:40:18;22.95;;;11.52;;
74849;SDS011;63397;47.480;19.238;2023-10-13T07:43:29;22.90;;;12.03;;
74849;SDS011;63397;47.480;19.238;2023-10-13T07:46:34;23.70;;;11.32;;
74849;SDS011;63397;47.480;19.238;2023-10-13T07:49:38;23.98;;;11.80;;
74849;SDS011;63397;47.480;19.238;2023-10-13T07:52:42;22.42;;;11.88;;
74849;SDS011;63397;47.480;19.238;2023-10-13T07:56:01;27.40;;;12.32;;
74849;SDS011;63397;47.480;19.238;2023-10-13T07:59:14;21.27;;;11.20;;
74849;SDS011;63397;47.480;19.238;2023-10-13T08:02:24;23.10;;;11.48;;
74849;SDS011;63397;47.480;19.238;2023-10-13T08:05:53;19.20;;;11.10;;
74849;SDS011;63397;47.480;19.238;2023-10-13T08:09:14;22.20;;;10.32;;
74849;SDS011;63397;47.480;19.238;2023-10-13T08:12:42;19.63;;;10.93;;
74849;SDS011;63397;47.480;19.238;2023-10-13T08:15:46;19.27;;;11.53;;
74849;SDS011;63397;47.480;19.238;2023-10-13T08:18:52;22.90;;;11.25;;
74849;SDS011;63397;47.480;19.238;2023-10-13T08:21:55;19.45;;;10.93;;
74849;SDS011;63397;47.480;19.238;2023-10-13T08:25:01;22.13;;;10.45;;
74849;SDS011;63397;47.480;19.238;2023-10-13T08:28:23;17.65;;;10.18;;
74849;SDS011;63397;47.480;19.238;2023-10-13T08:31:58;19.57;;;9.80;;
74849;SDS011;63397;47.480;19.238;2023-10-13T08:35:06;19.92;;;11.13;;
74849;SDS011;63397;47.480;19.238;2023-10-13T08:38:09;20.02;;;10.63;;
74849;SDS011;63397;47.480;19.238;2023-10-13T08:41:31;21.00;;;10.73;;
74849;SDS011;63397;47.480;19.238;2023-10-13T08:44:34;19.55;;;10.57;;
74849;SDS011;63397;47.480;19.238;2023-10-13T08:47:40;16.07;;;9.00;;
74849;SDS011;63397;47.480;19.238;2023-10-13T08:50:50;18.88;;;10.32;;
74849;SDS011;63397;47.480;19.238;2023-10-13T08:53:54;17.35;;;9.63;;
74849;SDS011;63397;47.480;19.238;2023-10-13T08:57:00;17.30;;;9.40;;
74849;SDS011;63397;47.480;19.238;2023-10-13T09:00:26;21.48;;;9.45;;
74849;SDS011;63397;47.480;19.238;2023-10-13T09:03:34;21.40;;;10.13;;
74849;SDS011;63397;47.480;19.238;2023-10-13T09:10:22;19.30;;;9.77;;
74849;SDS011;63397;47.480;19.238;2023-10-13T09:13:39;18.67;;;10.15;;
74849;SDS011;63397;47.480;19.238;2023-10-13T09:17:09;16.73;;;9.82;;
74849;SDS011;63397;47.480;19.238;2023-10-13T09:20:59;17.43;;;8.97;;
74849;SDS011;63397;47.480;19.238;2023-10-13T09:24:36;16.63;;;9.50;;
74849;SDS011;63397;47.480;19.238;2023-10-13T09:27:38;17.25;;;10.30;;
74849;SDS011;63397;47.480;19.238;2023-10-13T09:30:45;18.42;;;9.95;;
74849;SDS011;63397;47.480;19.238;2023-10-13T09:33:48;20.85;;;9.73;;
74849;SDS011;63397;47.480;19.238;2023-10-13T09:36:59;18.33;;;9.47;;
74849;SDS011;63397;47.480;19.238;2023-10-13T09:40:06;19.17;;;10.02;;
74849;SDS011;63397;47.480;19.238;2023-10-13T09:43:31;17.98;;;8.88;;
74849;SDS011;63397;47.480;19.238;2023-10-13T09:46:40;15.73;;;8.65;;
74849;SDS011;63397;47.480;19.238;2023-10-13T09:49:44;15.57;;;8.93;;
74849;SDS011;63397;47.480;19.238;2023-10-13T09:52:48;17.57;;;8.63;;
74849;SDS011;63397;47.480;19.238;2023-10-13T09:55:54;15.73;;;9.35;;
74849;SDS011;63397;47.480;19.238;2023-10-13T09:59:08;14.45;;;8.10;;
74849;SDS011;63397;47.480;19.238;2023-10-13T10:02:15;15.70;;;8.80;;
74849;SDS011;63397;47.480;19.238;2023-10-13T10:05:23;17.88;;;9.52;;
74849;SDS011;63397;47.480;19.238;2023-10-13T10:08:27;15.90;;;9.07;;
74849;SDS011;63397;47.480;19.238;2023-10-13T10:17:50;18.77;;;9.32;;
74849;SDS011;63397;47.480;19.238;2023-10-13T10:21:05;17.60;;;8.82;;
74849;SDS011;63397;47.480;19.238;2023-10-13T10:24:15;16.57;;;8.90;;
74849;SDS011;63397;47.480;19.238;2023-10-13T10:27:34;15.00;;;9.63;;
74849;SDS011;63397;47.480;19.238;2023-10-13T10:30:37;17.58;;;8.77;;
74849;SDS011;63397;47.480;19.238;2023-10-13T10:33:44;18.85;;;8.75;;
74849;SDS011;63397;47.480;19.238;2023-10-13T10:36:53;17.50;;;8.38;;
74849;SDS011;63397;47.480;19.238;2023-10-13T10:39:58;15.57;;;7.97;;
74849;SDS011;63397;47.480;19.238;2023-10-13T10:43:00;13.63;;;7.53;;
74849;SDS011;63397;47.480;19.238;2023-10-13T10:46:18;16.55;;;7.90;;
74849;SDS011;63397;47.480;19.238;2023-10-13T10:49:26;14.18;;;7.97;;
74849;SDS011;63397;47.480;19.238;2023-10-13T10:52:34;17.20;;;7.72;;
74849;SDS011;63397;47.480;19.238;2023-10-13T10:55:41;16.63;;;7.60;;
74849;SDS011;63397;47.480;19.238;2023-10-13T10:59:06;13.55;;;6.97;;
74849;SDS011;63397;47.480;19.238;2023-10-13T11:02:31;14.02;;;6.70;;
74849;SDS011;63397;47.480;19.238;2023-10-13T11:05:45;15.18;;;7.18;;
74849;SDS011;63397;47.480;19.238;2023-10-13T11:08:48;12.45;;;7.30;;
74849;SDS011;63397;47.480;19.238;2023-10-13T11:11:56;12.20;;;6.43;;
74849;SDS011;63397;47.480;19.238;2023-10-13T11:15:06;15.07;;;7.30;;
74849;SDS011;63397;47.480;19.238;2023-10-13T11:18:16;17.95;;;7.55;;
74849;SDS011;63397;47.480;19.238;2023-10-13T11:21:28;17.10;;;6.47;;
74849;SDS011;63397;47.480;19.238;2023-10-13T11:24:38;12.85;;;7.22;;
74849;SDS011;63397;47.480;19.238;2023-10-13T11:27:41;12.47;;;6.63;;
74849;SDS011;63397;47.480;19.238;2023-10-13T11:30:58;13.77;;;6.00;;
74849;SDS011;63397;47.480;19.238;2023-10-13T11:34:01;11.55;;;6.25;;
74849;SDS011;63397;47.480;19.238;2023-10-13T11:37:08;11.25;;;5.47;;
74849;SDS011;63397;47.480;19.238;2023-10-13T11:40:29;11.60;;;6.28;;
74849;SDS011;63397;47.480;19.238;2023-10-13T11:44:07;11.93;;;6.23;;
74849;SDS011;63397;47.480;19.238;2023-10-13T11:47:25;10.20;;;5.40;;
74849;SDS011;63397;47.480;19.238;2023-10-13T11:50:50;12.07;;;5.65;;
74849;SDS011;63397;47.480;19.238;2023-10-13T11:53:53;9.95;;;5.57;;
74849;SDS011;63397;47.480;19.238;2023-10-13T11:56:55;9.77;;;5.90;;
74849;SDS011;63397;47.480;19.238;2023-10-13T12:00:01;10.80;;;5.67;;
74849;SDS011;63397;47.480;19.238;2023-10-13T12:03:23;10.88;;;5.85;;
74849;SDS011;63397;47.480;19.238;2023-10-13T12:06:44;10.57;;;5.50;;
74849;SDS011;63397;47.480;19.238;2023-10-13T12:09:47;10.57;;;5.35;;
74849;SDS011;63397;47.480;19.238;2023-10-13T12:13:00;11.38;;;5.47;;
74849;SDS011;63397;47.480;19.238;2023-10-13T12:16:07;14.27;;;5.40;;
74849;SDS011;63397;47.480;19.238;2023-10-13T12:19:11;12.90;;;5.10;;
74849;SDS011;63397;47.480;19.238;2023-10-13T12:22:14;11.30;;;5.97;;
74849;SDS011;63397;47.480;19.238;2023-10-13T12:25:27;13.80;;;5.72;;
74849;SDS011;63397;47.480;19.238;2023-10-13T12:28:36;9.10;;;4.80;;
74849;SDS011;63397;47.480;19.238;2023-10-13T12:31:43;13.20;;;5.47;;
74849;SDS011;63397;47.480;19.238;2023-10-13T12:34:53;12.27;;;5.50;;
74849;SDS011;63397;47.480;19.238;2023-10-13T12:38:02;11.60;;;5.60;;
74849;SDS011;63397;47.480;19.238;2023-10-13T12:41:07;11.07;;;5.43;;
74849;SDS011;63397;47.480;19.238;2023-10-13T12:44:36;13.85;;;5.50;;
74849;SDS011;63397;47.480;19.238;2023-10-13T12:47:57;9.53;;;5.13;;
74849;SDS011;63397;47.480;19.238;2023-10-13T12:51:18;11.20;;;4.65;;
74849;SDS011;63397;47.480;19.238;2023-10-13T12:54:35;11.35;;;5.43;;
74849;SDS011;63397;47.480;19.238;2023-10-13T12:57:41;10.02;;;5.07;;
74849;SDS011;63397;47.480;19.238;2023-10-13T13:00:46;10.85;;;4.70;;
74849;SDS011;63397;47.480;19.238;2023-10-13T13:03:52;9.37;;;5.30;;
74849;SDS011;63397;47.480;19.238;2023-10-13T13:06:58;9.07;;;5.03;;
74849;SDS011;63397;47.480;19.238;2023-10-13T13:10:00;11.43;;;5.07;;
74849;SDS011;63397;47.480;19.238;2023-10-13T13:13:03;10.77;;;4.88;;
74849;SDS011;63397;47.480;19.238;2023-10-13T13:16:05;8.60;;;4.30;;
74849;SDS011;63397;47.480;19.238;2023-10-13T13:19:07;8.87;;;4.00;;
74849;SDS011;63397;47.480;19.238;2023-10-13T13:22:16;10.65;;;4.20;;
74849;SDS011;63397;47.480;19.238;2023-10-13T13:25:20;12.23;;;4.45;;
74849;SDS011;63397;47.480;19.238;2023-10-13T13:28:28;9.75;;;4.75;;
74849;SDS011;63397;47.480;19.238;2023-10-13T13:31:40;7.78;;;4.15;;
74849;SDS011;63397;47.480;19.238;2023-10-13T13:34:45;9.10;;;3.73;;
74849;SDS011;63397;47.480;19.238;2023-10-13T13:37:57;8.90;;;3.95;;
74849;SDS011;63397;47.480;19.238;2023-10-13T13:41:14;8.68;;;3.95;;
74849;SDS011;63397;47.480;19.238;2023-10-13T13:44:19;9.27;;;4.00;;
74849;SDS011;63397;47.480;19.238;2023-10-13T13:47:21;8.25;;;4.13;;
74849;SDS011;63397;47.480;19.238;2023-10-13T13:50:27;6.60;;;3.70;;
74849;SDS011;63397;47.480;19.238;2023-10-13T13:53:34;8.30;;;4.07;;
74849;SDS011;63397;47.480;19.238;2023-10-13T13:56:44;9.65;;;3.78;;
74849;SDS011;63397;47.480;19.238;2023-10-13T13:59:46;9.57;;;3.67;;
74849;SDS011;63397;47.480;19.238;2023-10-13T14:02:49;10.10;;;4.07;;
74849;SDS011;63397;47.480;19.238;2023-10-13T14:05:51;7.13;;;3.43;;
74849;SDS011;63397;47.480;19.238;2023-10-13T14:08:55;7.50;;;3.40;;
74849;SDS011;63397;47.480;19.238;2023-10-13T14:11:58;6.68;;;3.30;;
74849;SDS011;63397;47.480;19.238;2023-10-13T14:15:19;7.38;;;3.67;;
74849;SDS011;63397;47.480;19.238;2023-10-13T14:18:26;7.22;;;3.60;;
74849;SDS011;63397;47.480;19.238;2023-10-13T14:21:32;6.77;;;3.33;;
74849;SDS011;63397;47.480;19.238;2023-10-13T14:24:37;6.95;;;3.47;;
74849;SDS011;63397;47.480;19.238;2023-10-13T14:27:45;6.75;;;3.40;;
74849;SDS011;63397;47.480;19.238;2023-10-13T14:30:48;8.02;;;3.55;;
74849;SDS011;63397;47.480;19.238;2023-10-13T14:33:50;7.22;;;3.60;;
74849;SDS011;63397;47.480;19.238;2023-10-13T14:36:53;8.03;;;3.23;;
74849;SDS011;63397;47.480;19.238;2023-10-13T14:39:57;9.25;;;3.60;;
74849;SDS011;63397;47.480;19.238;2023-10-13T14:42:59;9.20;;;3.10;;
74849;SDS011;63397;47.480;19.238;2023-10-13T14:46:01;10.30;;;3.00;;
74849;SDS011;63397;47.480;19.238;2023-10-13T14:49:04;9.68;;;3.53;;
74849;SDS011;63397;47.480;19.238;2023-10-13T14:52:07;7.13;;;3.17;;
74849;SDS011;63397;47.480;19.238;2023-10-13T14:55:10;7.57;;;3.28;;
74849;SDS011;63397;47.480;19.238;2023-10-13T14:58:22;7.80;;;3.25;;
74849;SDS011;63397;47.480;19.238;2023-10-13T15:01:28;7.20;;;3.15;;
74849;SDS011;63397;47.480;19.238;2023-10-13T15:04:31;10.82;;;3.38;;
74849;SDS011;63397;47.480;19.238;2023-10-13T15:07:36;9.30;;;3.70;;
74849;SDS011;63397;47.480;19.238;2023-10-13T15:10:38;11.02;;;6.32;;
74849;SDS011;63397;47.480;19.238;2023-10-13T15:13:41;10.20;;;3.88;;
74849;SDS011;63397;47.480;19.238;2023-10-13T15:16:43;8.82;;;3.42;;
74849;SDS011;63397;47.480;19.238;2023-10-13T15:19:46;8.23;;;2.83;;
74849;SDS011;63397;47.480;19.238;2023-10-13T15:22:49;6.07;;;2.97;;
74849;SDS011;63397;47.480;19.238;2023-10-13T15:25:51;8.45;;;3.10;;
74849;SDS011;63397;47.480;19.238;2023-10-13T15:28:54;8.57;;;3.05;;
74849;SDS011;63397;47.480;19.238;2023-10-13T15:31:58;7.40;;;3.20;;
74849;SDS011;63397;47.480;19.238;2023-10-13T15:35:01;7.45;;;3.08;;
74849;SDS011;63397;47.480;19.238;2023-10-13T15:38:03;8.23;;;3.10;;
74849;SDS011;63397;47.480;19.238;2023-10-13T15:41:06;5.90;;;2.90;;
74849;SDS011;63397;47.480;19.238;2023-10-13T15:44:11;7.47;;;3.10;;
74849;SDS011;63397;47.480;19.238;2023-10-13T15:47:15;7.57;;;3.03;;
74849;SDS011;63397;47.480;19.238;2023-10-13T15:50:20;8.35;;;3.13;;
74849;SDS011;63397;47.480;19.238;2023-10-13T15:53:24;6.50;;;2.77;;
74849;SDS011;63397;47.480;19.238;2023-10-13T15:56:27;6.40;;;3.13;;
74849;SDS011;63397;47.480;19.238;2023-10-13T15:59:29;6.25;;;3.10;;
74849;SDS011;63397;47.480;19.238;2023-10-13T16:02:32;8.35;;;3.50;;
74849;SDS011;63397;47.480;19.238;2023-10-13T16:05:34;7.15;;;2.92;;
74849;SDS011;63397;47.480;19.238;2023-10-13T16:08:37;6.87;;;2.90;;
74849;SDS011;63397;47.480;19.238;2023-10-13T16:11:40;7.88;;;3.25;;
74849;SDS011;63397;47.480;19.238;2023-10-13T16:14:44;9.45;;;3.72;;
74849;SDS011;63397;47.480;19.238;2023-10-13T16:17:47;8.15;;;3.80;;
74849;SDS011;63397;47.480;19.238;2023-10-13T16:20:49;8.98;;;4.00;;
74849;SDS011;63397;47.480;19.238;2023-10-13T16:23:53;10.40;;;4.50;;
74849;SDS011;63397;47.480;19.238;2023-10-13T16:26:55;19.20;;;8.65;;
74849;SDS011;63397;47.480;19.238;2023-10-13T16:30:01;21.08;;;9.43;;
74849;SDS011;63397;47.480;19.238;2023-10-13T16:33:03;15.95;;;7.25;;
74849;SDS011;63397;47.480;19.238;2023-10-13T16:36:07;16.17;;;6.57;;
74849;SDS011;63397;47.480;19.238;2023-10-13T16:39:12;14.97;;;5.73;;
74849;SDS011;63397;47.480;19.238;2023-10-13T16:42:18;13.30;;;4.85;;
74849;SDS011;63397;47.480;19.238;2023-10-13T16:45:21;8.77;;;4.00;;
74849;SDS011;63397;47.480;19.238;2023-10-13T16:48:23;8.35;;;3.17;;
74849;SDS011;63397;47.480;19.238;2023-10-13T16:51:28;10.93;;;3.60;;
74849;SDS011;63397;47.480;19.238;2023-10-13T16:54:35;11.13;;;3.27;;
74849;SDS011;63397;47.480;19.238;2023-10-13T16:57:37;8.35;;;3.53;;
74849;SDS011;63397;47.480;19.238;2023-10-13T17:00:40;8.27;;;3.40;;
74849;SDS011;63397;47.480;19.238;2023-10-13T17:03:47;9.82;;;3.33;;
74849;SDS011;63397;47.480;19.238;2023-10-13T17:06:52;9.52;;;3.33;;
74849;SDS011;63397;47.480;19.238;2023-10-13T17:09:57;6.93;;;3.33;;
74849;SDS011;63397;47.480;19.238;2023-10-13T17:12:59;12.32;;;4.10;;
74849;SDS011;63397;47.480;19.238;2023-10-13T17:16:09;8.85;;;3.08;;
74849;SDS011;63397;47.480;19.238;2023-10-13T17:19:13;11.07;;;3.63;;
74849;SDS011;63397;47.480;19.238;2023-10-13T17:22:18;10.35;;;3.92;;
74849;SDS011;63397;47.480;19.238;2023-10-13T17:25:22;10.30;;;4.27;;
74849;SDS011;63397;47.480;19.238;2023-10-13T17:28:24;10.40;;;3.90;;
74849;SDS011;63397;47.480;19.238;2023-10-13T17:31:26;14.32;;;4.22;;
74849;SDS011;63397;47.480;19.238;2023-10-13T17:34:29;11.05;;;4.28;;
74849;SDS011;63397;47.480;19.238;2023-10-13T17:37:31;17.25;;;3.72;;
74849;SDS011;63397;47.480;19.238;2023-10-13T17:40:35;7.33;;;3.70;;
74849;SDS011;63397;47.480;19.238;2023-10-13T17:43:38;11.98;;;4.25;;
74849;SDS011;63397;47.480;19.238;2023-10-13T17:46:40;8.93;;;4.38;;
74849;SDS011;63397;47.480;19.238;2023-10-13T17:49:43;11.02;;;4.22;;
74849;SDS011;63397;47.480;19.238;2023-10-13T17:52:45;11.57;;;3.58;;
74849;SDS011;63397;47.480;19.238;2023-10-13T17:55:50;8.07;;;3.50;;
74849;SDS011;63397;47.480;19.238;2023-10-13T17:58:54;10.48;;;3.92;;
74849;SDS011;63397;47.480;19.238;2023-10-13T18:01:56;7.72;;;3.25;;
74849;SDS011;63397;47.480;19.238;2023-10-13T18:04:59;9.77;;;3.30;;
74849;SDS011;63397;47.480;19.238;2023-10-13T18:08:02;12.98;;;4.15;;
74849;SDS011;63397;47.480;19.238;2023-10-13T18:11:05;9.37;;;3.80;;
74849;SDS011;63397;47.480;19.238;2023-10-13T18:14:08;11.68;;;4.15;;
74849;SDS011;63397;47.480;19.238;2023-10-13T18:17:13;10.13;;;4.13;;
74849;SDS011;63397;47.480;19.238;2023-10-13T18:20:18;6.90;;;3.13;;
74849;SDS011;63397;47.480;19.238;2023-10-13T18:23:22;10.40;;;3.90;;
74849;SDS011;63397;47.480;19.238;2023-10-13T18:26:25;11.43;;;3.83;;
74849;SDS011;63397;47.480;19.238;2023-10-13T18:29:27;10.45;;;3.65;;
74849;SDS011;63397;47.480;19.238;2023-10-13T18:32:29;11.05;;;3.90;;
74849;SDS011;63397;47.480;19.238;2023-10-13T18:35:32;8.07;;;3.45;;
74849;SDS011;63397;47.480;19.238;2023-10-13T18:38:34;7.03;;;3.55;;
74849;SDS011;63397;47.480;19.238;2023-10-13T18:41:36;7.57;;;3.33;;
74849;SDS011;63397;47.480;19.238;2023-10-13T18:44:40;10.05;;;3.70;;
74849;SDS011;63397;47.480;19.238;2023-10-13T18:47:42;10.82;;;3.70;;
74849;SDS011;63397;47.480;19.238;2023-10-13T18:50:47;10.50;;;4.35;;
74849;SDS011;63397;47.480;19.238;2023-10-13T18:53:50;11.60;;;4.50;;
74849;SDS011;63397;47.480;19.238;2023-10-13T18:56:52;11.57;;;4.10;;
74849;SDS011;63397;47.480;19.238;2023-10-13T18:59:56;10.32;;;3.95;;
74849;SDS011;63397;47.480;19.238;2023-10-13T19:02:58;14.18;;;4.35;;
74849;SDS011;63397;47.480;19.238;2023-10-13T19:06:01;11.52;;;3.78;;
74849;SDS011;63397;47.480;19.238;2023-10-13T19:09:06;9.35;;;4.40;;
74849;SDS011;63397;47.480;19.238;2023-10-13T19:12:09;11.57;;;4.73;;
74849;SDS011;63397;47.480;19.238;2023-10-13T19:15:11;11.23;;;4.00;;
74849;SDS011;63397;47.480;19.238;2023-10-13T19:18:14;9.45;;;4.25;;
74849;SDS011;63397;47.480;19.238;2023-10-13T19:21:17;10.93;;;3.47;;
74849;SDS011;63397;47.480;19.238;2023-10-13T19:24:20;10.38;;;4.38;;
74849;SDS011;63397;47.480;19.238;2023-10-13T19:27:23;13.73;;;4.07;;
74849;SDS011;63397;47.480;19.238;2023-10-13T19:30:28;10.85;;;4.32;;
74849;SDS011;63397;47.480;19.238;2023-10-13T19:33:33;13.90;;;5.63;;
74849;SDS011;63397;47.480;19.238;2023-10-13T19:36:36;10.80;;;4.18;;
74849;SDS011;63397;47.480;19.238;2023-10-13T19:39:38;12.85;;;4.80;;
74849;SDS011;63397;47.480;19.238;2023-10-13T19:42:43;12.10;;;4.67;;
74849;SDS011;63397;47.480;19.238;2023-10-13T19:45:45;10.20;;;4.57;;
74849;SDS011;63397;47.480;19.238;2023-10-13T19:48:48;11.85;;;4.53;;
74849;SDS011;63397;47.480;19.238;2023-10-13T19:51:50;12.32;;;4.53;;
74849;SDS011;63397;47.480;19.238;2023-10-13T19:54:57;14.35;;;5.05;;
74849;SDS011;63397;47.480;19.238;2023-10-13T19:58:01;14.00;;;4.97;;
74849;SDS011;63397;47.480;19.238;2023-10-13T20:01:07;11.25;;;4.70;;
74849;SDS011;63397;47.480;19.238;2023-10-13T20:04:09;11.85;;;4.82;;
74849;SDS011;63397;47.480;19.238;2023-10-13T20:07:12;12.95;;;4.70;;
74849;SDS011;63397;47.480;19.238;2023-10-13T20:10:15;12.65;;;5.57;;
74849;SDS011;63397;47.480;19.238;2023-10-13T20:13:17;12.30;;;4.67;;
74849;SDS011;63397;47.480;19.238;2023-10-13T20:16:19;14.13;;;4.78;;
74849;SDS011;63397;47.480;19.238;2023-10-13T20:19:22;12.15;;;5.20;;
74849;SDS011;63397;47.480;19.238;2023-10-13T20:22:26;15.25;;;4.45;;
74849;SDS011;63397;47.480;19.238;2023-10-13T20:25:30;11.63;;;4.55;;
74849;SDS011;63397;47.480;19.238;2023-10-13T20:28:32;14.30;;;4.63;;
74849;SDS011;63397;47.480;19.238;2023-10-13T20:31:34;11.93;;;4.90;;
74849;SDS011;63397;47.480;19.238;2023-10-13T20:34:40;12.45;;;5.22;;
74849;SDS011;63397;47.480;19.238;2023-10-13T20:37:43;12.30;;;4.93;;
74849;SDS011;63397;47.480;19.238;2023-10-13T20:40:45;13.88;;;5.00;;
74849;SDS011;63397;47.480;19.238;2023-10-13T20:43:48;16.10;;;5.37;;
74849;SDS011;63397;47.480;19.238;2023-10-13T20:46:51;12.63;;;4.90;;
74849;SDS011;63397;47.480;19.238;2023-10-13T20:49:53;12.93;;;5.65;;
74849;SDS011;63397;47.480;19.238;2023-10-13T20:52:56;11.75;;;4.97;;
74849;SDS011;63397;47.480;19.238;2023-10-13T20:56:02;12.85;;;5.80;;
74849;SDS011;63397;47.480;19.238;2023-10-13T20:59:05;14.43;;;5.23;;
74849;SDS011;63397;47.480;19.238;2023-10-13T21:02:08;17.48;;;6.05;;
74849;SDS011;63397;47.480;19.238;2023-10-13T21:05:10;12.02;;;4.75;;
74849;SDS011;63397;47.480;19.238;2023-10-13T21:08:14;15.32;;;5.75;;
74849;SDS011;63397;47.480;19.238;2023-10-13T21:11:17;13.45;;;5.18;;
74849;SDS011;63397;47.480;19.238;2023-10-13T21:14:19;12.43;;;5.37;;
74849;SDS011;63397;47.480;19.238;2023-10-13T21:17:22;13.60;;;5.47;;
74849;SDS011;63397;47.480;19.238;2023-10-13T21:20:24;12.23;;;5.50;;
74849;SDS011;63397;47.480;19.238;2023-10-13T21:23:27;14.02;;;4.93;;
74849;SDS011;63397;47.480;19.238;2023-10-13T21:26:30;12.15;;;5.65;;
74849;SDS011;63397;47.480;19.238;2023-10-13T21:29:32;15.73;;;5.10;;
74849;SDS011;63397;47.480;19.238;2023-10-13T21:32:34;15.73;;;5.80;;
74849;SDS011;63397;47.480;19.238;2023-10-13T21:35:37;12.65;;;4.82;;
74849;SDS011;63397;47.480;19.238;2023-10-13T21:38:42;11.32;;;5.20;;
74849;SDS011;63397;47.480;19.238;2023-10-13T21:41:47;11.95;;;4.70;;
74849;SDS011;63397;47.480;19.238;2023-10-13T21:44:50;13.33;;;5.20;;
74849;SDS011;63397;47.480;19.238;2023-10-13T21:47:57;11.48;;;4.75;;
74849;SDS011;63397;47.480;19.238;2023-10-13T21:51:10;13.50;;;4.90;;
74849;SDS011;63397;47.480;19.238;2023-10-13T21:54:13;13.60;;;5.10;;
74849;SDS011;63397;47.480;19.238;2023-10-13T21:57:16;10.27;;;4.80;;
74849;SDS011;63397;47.480;19.238;2023-10-13T22:00:20;11.37;;;5.07;;
74849;SDS011;63397;47.480;19.238;2023-10-13T22:03:43;12.88;;;4.65;;
74849;SDS011;63397;47.480;19.238;2023-10-13T22:06:46;12.70;;;5.93;;
74849;SDS011;63397;47.480;19.238;2023-10-13T22:09:48;11.45;;;5.97;;
74849;SDS011;63397;47.480;19.238;2023-10-13T22:12:51;17.08;;;5.78;;
74849;SDS011;63397;47.480;19.238;2023-10-13T22:15:56;11.57;;;5.00;;
74849;SDS011;63397;47.480;19.238;2023-10-13T22:18:59;12.90;;;5.40;;
74849;SDS011;63397;47.480;19.238;2023-10-13T22:22:02;17.08;;;6.05;;
74849;SDS011;63397;47.480;19.238;2023-10-13T22:25:04;11.85;;;4.88;;
74849;SDS011;63397;47.480;19.238;2023-10-13T22:28:13;16.42;;;5.88;;
74849;SDS011;63397;47.480;19.238;2023-10-13T22:31:18;13.13;;;5.23;;
74849;SDS011;63397;47.480;19.238;2023-10-13T22:34:24;15.77;;;5.22;;
74849;SDS011;63397;47.480;19.238;2023-10-13T22:37:27;13.32;;;5.78;;
74849;SDS011;63397;47.480;19.238;2023-10-13T22:40:30;15.90;;;5.88;;
74849;SDS011;63397;47.480;19.238;2023-10-13T22:43:33;12.88;;;5.43;;
74849;SDS011;63397;47.480;19.238;2023-10-13T22:46:35;14.17;;;5.73;;
74849;SDS011;63397;47.480;19.238;2023-10-13T22:49:38;14.15;;;5.63;;
74849;SDS011;63397;47.480;19.238;2023-10-13T22:52:44;13.02;;;5.47;;
74849;SDS011;63397;47.480;19.238;2023-10-13T22:55:46;16.40;;;5.70;;
74849;SDS011;63397;47.480;19.238;2023-10-13T22:58:48;10.70;;;5.13;;
74849;SDS011;63397;47.480;19.238;2023-10-13T23:01:50;13.40;;;5.47;;
74849;SDS011;63397;47.480;19.238;2023-10-13T23:04:53;12.52;;;5.03;;
74849;SDS011;63397;47.480;19.238;2023-10-13T23:07:58;11.40;;;5.38;;
74849;SDS011;63397;47.480;19.238;2023-10-13T23:11:13;13.13;;;5.53;;
74849;SDS011;63397;47.480;19.238;2023-10-13T23:14:17;13.13;;;4.82;;
74849;SDS011;63397;47.480;19.238;2023-10-13T23:17:20;13.80;;;5.60;;
74849;SDS011;63397;47.480;19.238;2023-10-13T23:20:23;18.63;;;6.15;;
74849;SDS011;63397;47.480;19.238;2023-10-13T23:23:25;13.18;;;5.82;;
74849;SDS011;63397;47.480;19.238;2023-10-13T23:26:28;15.68;;;6.07;;
74849;SDS011;63397;47.480;19.238;2023-10-13T23:29:32;12.65;;;5.80;;
74849;SDS011;63397;47.480;19.238;2023-10-13T23:32:37;13.30;;;5.07;;
74849;SDS011;63397;47.480;19.238;2023-10-13T23:35:40;11.02;;;4.97;;
74849;SDS011;63397;47.480;19.238;2023-10-13T23:38:45;16.65;;;5.47;;
74849;SDS011;63397;47.480;19.238;2023-10-13T23:42:11;12.63;;;4.90;;
74849;SDS011;63397;47.480;19.238;2023-10-13T23:45:24;12.82;;;5.05;;
74849;SDS011;63397;47.480;19.238;2023-10-13T23:48:26;14.73;;;5.33;;
74849;SDS011;63397;47.480;19.238;2023-10-13T23:51:28;14.25;;;5.75;;
74849;SDS011;63397;47.480;19.238;2023-10-13T23:54:31;15.77;;;5.82;;
74849;SDS011;63397;47.480;19.238;2023-10-13T23:57:41;14.52;;;6.00;;
